Time;durP1;ratioP1;P1;durP2;ratioP2;P2;SDS_P1;SDS_P2;PMS_P1;PMS_P2;Temp;Humidity;BMP_temperature;BMP_pressure;BME280_temperature;BME280_humidity;BME280_pressure;Samples;Min_cycle;Max_cycle;Signal;HPM_P1;HPM_P2
2022/06/27 14:36:09;;;;;;;3.90;2.40;;;;;;;30.42;34.45;99713.56;1866593;74;22040;-63
2022/06/27 14:38:39;;;;;;;4.42;2.00;;;;;;;30.31;34.13;99710.10;1823964;76;21036;-63
2022/06/27 14:41:06;;;;;;;6.15;2.37;;;;;;;30.33;34.26;99705.32;1826671;76;21470;-64
2022/06/27 14:43:34;;;;;;;4.08;2.20;;;;;;;30.39;34.50;99711.77;1777077;78;20959;-63
2022/06/27 14:46:04;;;;;;;3.22;2.30;;;;;;;30.39;34.49;99715.31;1774128;80;21088;-63
2022/06/27 14:48:31;;;;;;;5.55;2.58;;;;;;;30.44;34.70;99716.86;1811273;78;21053;-63
2022/06/27 14:50:57;;;;;;;;;;;;;;;30.60;34.74;99701.38;1815561;77;20969;-63
2022/06/27 14:53:26;;;;;;;6.58;1.65;;;;;;;30.63;34.56;99705.02;1816134;77;21104;-63
2022/06/27 14:55:55;;;;;;;3.05;2.17;;;;;;;30.47;34.27;99712.45;1784924;78;20919;-63
2022/06/27 14:58:24;;;;;;;3.70;2.10;;;;;;;30.38;34.66;99707.42;1793996;78;20943;-63
2022/06/27 15:00:52;;;;;;;4.12;2.22;;;;;;;30.50;34.71;99711.19;1817934;77;21485;-63
2022/06/27 15:03:20;;;;;;;6.75;2.40;;;;;;;30.49;34.64;99713.05;1806764;77;21083;-64
2022/06/27 15:05:49;;;;;;;4.85;1.60;;;;;;;30.53;34.66;99704.89;1808664;78;21237;-64
2022/06/27 15:08:17;;;;;;;5.22;2.35;;;;;;;30.43;34.57;99704.44;1813150;77;20925;-64
2022/06/27 15:13:38;;;;;;;1.98;1.77;;;;;;;30.27;34.54;99700.75;1761489;79;21033;-63
2022/06/27 15:16:05;;;;;;;;;;;;;;;30.15;34.61;99699.64;1739629;78;21173;-63
2022/06/27 15:18:32;;;;;;;3.10;2.02;;;;;;;30.22;34.61;99696.47;1780758;77;21076;-63
2022/06/27 15:20:58;;;;;;;;;;;;;;;30.11;34.32;99697.88;1788231;78;21569;-63
2022/06/27 15:23:25;;;;;;;7.03;2.52;;;;;;;30.14;34.71;99706.03;1780390;78;20152;-63
2022/06/27 15:25:51;;;;;;;;;;;;;;;30.19;34.84;99701.70;1775970;79;21024;-63
2022/06/27 15:28:18;;;;;;;6.22;2.33;;;;;;;30.37;34.86;99703.91;1775178;79;20692;-63
2022/06/27 15:30:45;;;;;;;5.40;2.00;;;;;;;30.36;34.76;99710.33;1780455;79;21091;-61
2022/06/27 15:33:12;;;;;;;6.00;1.90;;;;;;;30.35;34.71;99700.57;1779293;79;21620;-63
2022/06/27 15:35:39;;;;;;;5.12;1.90;;;;;;;30.30;34.78;99698.99;1773601;79;21110;-63
2022/06/27 15:38:06;;;;;;;7.95;2.10;;;;;;;30.23;34.78;99696.80;1772593;79;21045;-64
2022/06/27 15:40:33;;;;;;;6.00;2.00;;;;;;;30.15;34.72;99696.94;1773171;78;21068;-63
2022/06/27 15:42:59;;;;;;;;;;;;;;;30.14;34.58;99691.22;1791901;77;21457;-64
2022/06/27 15:45:28;;;;;;;;;;;;;;;30.10;34.84;99694.32;1798254;77;20243;-63
2022/06/27 15:48:01;;;;;;;6.85;2.40;;;;;;;30.17;34.59;99684.12;1793310;77;20448;-63
2022/06/27 15:50:29;;;;;;;4.85;2.08;;;;;;;30.09;34.39;99683.25;1792570;77;21306;-64
2022/06/27 15:52:57;;;;;;;3.83;2.02;;;;;;;29.96;34.51;99683.17;1800180;77;20966;-64
2022/06/27 15:57:44;;;;;;;13.60;2.70;;;;;;;29.92;34.65;99695.38;1841241;76;21922;-63
2022/06/27 16:00:13;;;;;;;10.53;2.25;;;;;;;29.94;34.87;99698.72;1809136;77;20985;-64
2022/06/27 16:02:42;;;;;;;12.10;2.52;;;;;;;30.01;34.75;99691.48;1807689;78;21078;-63
2022/06/27 16:05:10;;;;;;;4.33;2.33;;;;;;;29.99;34.85;99698.92;1809186;78;22415;-64
2022/06/27 16:07:40;;;;;;;10.08;2.10;;;;;;;30.00;34.84;99694.40;1808591;76;20977;-64
2022/06/27 16:10:09;;;;;;;5.25;2.05;;;;;;;29.92;34.91;99684.62;1816674;78;21040;-64
2022/06/27 16:12:36;;;;;;;3.98;2.30;;;;;;;29.82;34.94;99692.21;1822602;78;20993;-63
2022/06/27 16:15:04;;;;;;;10.93;2.80;;;;;;;29.72;34.96;99686.38;1795908;78;22407;-64
2022/06/27 16:17:31;;;;;;;4.72;2.33;;;;;;;29.70;35.20;99691.11;1815330;76;21056;-63
2022/06/27 16:19:57;;;;;;;;;;;;;;;29.71;35.32;99692.25;1812291;78;20988;-64
2022/06/27 16:22:24;;;;;;;8.13;2.75;;;;;;;29.74;35.25;99685.12;1822784;78;20128;-63
2022/06/27 16:24:51;;;;;;;6.92;2.20;;;;;;;29.69;35.29;99684.05;1814575;76;21012;-64
2022/06/27 16:27:18;;;;;;;;;;;;;;;29.69;35.41;99688.09;1823818;78;22209;-64
2022/06/27 16:29:44;;;;;;;5.65;2.17;;;;;;;29.72;35.61;99680.99;1811885;76;20154;-64
2022/06/27 16:32:12;;;;;;;;;;;;;;;29.74;35.67;99686.98;1807688;78;21028;-63
2022/06/27 16:34:39;;;;;;;11.22;2.47;;;;;;;29.65;35.62;99681.76;1806685;78;20352;-64
2022/06/27 16:37:06;;;;;;;4.60;2.42;;;;;;;29.60;35.76;99688.20;1806256;78;21822;-64
2022/06/27 16:39:33;;;;;;;6.45;2.25;;;;;;;29.61;35.78;99683.16;1808974;78;21112;-64
2022/06/27 16:44:45;;;;;;;4.45;2.60;;;;;;;29.53;35.96;99675.25;1811473;78;21074;-64
2022/06/27 16:47:12;;;;;;;4.53;2.85;;;;;;;29.45;35.96;99681.59;1816386;78;21139;-64
2022/06/27 16:49:39;;;;;;;5.15;2.85;;;;;;;29.41;36.06;99682.20;1813968;78;21027;-64
2022/06/27 16:52:08;;;;;;;;;;;;;;;29.45;36.28;99680.77;1818447;78;21496;-64
2022/06/27 16:54:39;;;;;;;8.08;2.45;;;;;;;29.45;36.37;99680.77;1811318;78;20533;-64
2022/06/27 16:57:06;;;;;;;3.05;2.17;;;;;;;29.49;36.42;99679.34;1813855;78;21070;-64
2022/06/27 16:59:34;;;;;;;5.95;2.42;;;;;;;29.42;36.27;99681.17;1814279;78;22110;-64
2022/06/27 17:02:22;;;;;;;5.87;2.47;;;;;;;29.35;36.27;99685.66;1809955;78;21207;-64
2022/06/27 17:04:50;;;;;;;10.58;2.60;;;;;;;29.27;36.23;99679.06;1834558;77;21113;-62
2022/06/27 17:07:16;;;;;;;5.83;2.50;;;;;;;29.17;36.18;99681.59;1834396;77;21010;-63
2022/06/27 17:09:43;;;;;;;7.95;2.83;;;;;;;29.10;36.30;99679.86;1837211;77;20963;-63
2022/06/27 17:12:10;;;;;;;;;;;;;;;29.06;36.43;99683.45;1837615;76;21537;-63
2022/06/27 17:14:57;;;;;;;6.47;2.33;;;;;;;29.03;36.42;99687.87;1830910;76;20510;-63
2022/06/27 17:17:23;;;;;;;6.10;2.35;;;;;;;28.96;36.39;99689.63;1725680;82;21128;-64
2022/06/27 17:19:50;;;;;;;5.92;2.22;;;;;;;28.93;36.55;99684.64;1724223;80;20970;-62
2022/06/27 17:22:16;;;;;;;;;;;;;;;28.86;36.32;99691.83;1711984;81;20985;-63
2022/06/27 17:24:43;;;;;;;7.92;2.40;;;;;;;28.75;36.27;99693.98;1683645;84;20198;-64
2022/06/27 17:27:11;;;;;;;4.22;2.02;;;;;;;28.69;36.44;99696.09;1706148;83;21632;-63
2022/06/27 17:29:37;;;;;;;7.72;2.50;;;;;;;28.60;36.36;99691.88;1709379;83;22141;-63
2022/06/27 17:32:05;;;;;;;8.93;2.20;;;;;;;28.54;36.47;99683.24;1713436;83;21299;-63
2022/06/27 17:34:32;;;;;;;4.92;2.42;;;;;;;28.48;36.53;99683.97;1709446;83;20981;-64
2022/06/27 17:36:59;;;;;;;6.42;2.60;;;;;;;28.44;36.57;99693.45;1704183;83;21088;-63
2022/06/27 17:39:26;;;;;;;;;;;;;;;28.41;36.61;99683.88;1709569;83;21883;-64
2022/06/27 17:41:56;;;;;;;6.22;2.58;;;;;;;28.38;36.80;99680.75;1703784;82;21444;-63
2022/06/27 17:44:23;;;;;;;4.47;2.30;;;;;;;28.30;36.81;99682.52;1711079;82;20979;-63
2022/06/27 17:46:49;;;;;;;5.72;2.47;;;;;;;28.21;36.88;99680.96;1714045;83;21156;-64
2022/06/27 17:49:16;;;;;;;;;;;;;;;28.17;36.96;99688.22;1713415;83;21123;-64
2022/06/27 17:51:43;;;;;;;3.62;2.00;;;;;;;28.11;37.14;99688.46;1707289;82;20209;-63
2022/06/27 17:54:10;;;;;;;4.08;2.27;;;;;;;28.05;37.24;99689.22;1707903;82;21668;-63
2022/06/27 17:56:36;;;;;;;5.30;2.90;;;;;;;28.01;37.32;99683.91;1711563;83;21060;-64
2022/06/27 17:59:03;;;;;;;9.93;3.95;;;;;;;27.94;37.40;99687.00;1706443;82;21578;-63
2022/06/27 18:01:30;;;;;;;5.80;2.90;;;;;;;27.88;37.59;99689.41;1685415;83;21094;-63
2022/06/27 18:03:57;;;;;;;7.17;3.52;;;;;;;27.80;37.75;99683.30;1696192;83;21140;-64
2022/06/27 18:06:23;;;;;;;3.40;2.33;;;;;;;27.75;37.94;99691.03;1694041;82;21273;-64
2022/06/27 18:08:50;;;;;;;5.80;2.27;;;;;;;27.69;38.03;99687.23;1693653;82;21087;-64
2022/06/27 18:11:16;;;;;;;;;;;;;;;27.61;38.19;99685.98;1705278;81;21139;-63
2022/06/27 18:13:43;;;;;;;3.15;1.95;;;;;;;27.54;38.40;99686.41;1689242;82;20236;-63
2022/06/27 18:16:10;;;;;;;2.15;1.70;;;;;;;27.45;38.51;99682.47;1715855;83;21073;-64
2022/06/27 18:18:37;;;;;;;4.40;2.33;;;;;;;27.37;38.73;99686.56;1712290;83;21059;-63
2022/06/27 18:21:03;;;;;;;3.72;1.90;;;;;;;27.29;38.83;99684.47;1699688;83;21092;-64
2022/06/27 18:23:30;;;;;;;7.30;2.65;;;;;;;27.19;39.08;99686.05;1701637;83;21009;-64
2022/06/27 18:25:57;;;;;;;;;;;;;;;27.11;39.24;99686.08;1710003;82;20955;-64
2022/06/27 18:28:25;;;;;;;2.87;2.05;;;;;;;27.05;39.43;99689.48;1704866;82;20187;-64
2022/06/27 18:30:54;;;;;;;3.30;2.15;;;;;;;26.96;39.57;99686.87;1707709;82;21065;-64
2022/06/27 18:33:28;;;;;;;5.60;2.22;;;;;;;26.90;39.73;99689.44;1709071;83;20997;-64
2022/06/27 18:35:55;;;;;;;6.67;2.30;;;;;;;26.78;39.87;99691.71;1699617;83;21074;-63
2022/06/27 18:38:25;;;;;;;6.75;2.42;;;;;;;26.70;40.06;99694.44;1703532;83;21068;-64
2022/06/27 18:40:52;;;;;;;11.48;2.72;;;;;;;26.60;40.18;99689.81;1701545;83;21023;-64
2022/06/27 18:43:18;;;;;;;;;;;;;;;26.48;40.33;99693.36;1704450;83;22198;-63
2022/06/27 18:45:45;;;;;;;;;;;;;;;26.32;40.64;99687.07;1703956;81;21707;-64
2022/06/27 18:48:36;;;;;;;5.60;2.20;;;;;;;26.19;40.93;99692.69;1686065;82;20179;-64
2022/06/27 18:51:04;;;;;;;19.57;2.98;;;;;;;26.06;40.94;99694.05;1761456;80;21097;-64
2022/06/27 18:53:31;;;;;;;9.25;2.70;;;;;;;25.94;41.18;99699.46;1742884;80;21722;-64
2022/06/27 18:56:00;;;;;;;7.20;2.55;;;;;;;25.83;41.31;99694.48;1736508;80;21122;-63
2022/06/27 18:58:27;;;;;;;11.63;2.92;;;;;;;25.71;41.57;99695.80;1727128;82;21009;-63
2022/06/27 19:00:53;;;;;;;3.30;2.52;;;;;;;25.59;41.68;99701.50;1743166;80;27378;-63
2022/06/27 19:03:20;;;;;;;6.50;2.72;;;;;;;25.46;42.08;99702.55;1726094;82;21727;-63
2022/06/27 19:05:47;;;;;;;8.65;3.08;;;;;;;25.37;42.08;99711.05;1722904;82;25350;-64
2022/06/27 19:08:14;;;;;;;4.80;2.77;;;;;;;25.27;42.24;99709.58;1757672;80;21123;-63
2022/06/27 19:10:42;;;;;;;7.67;2.70;;;;;;;25.16;42.57;99711.58;1753381;80;22255;-64
2022/06/27 19:13:09;;;;;;;6.22;2.60;;;;;;;25.07;42.56;99711.22;1753601;80;21025;-64
2022/06/27 19:15:36;;;;;;;8.48;2.90;;;;;;;24.95;42.75;99711.19;1755182;80;20909;-65
2022/06/27 19:18:03;;;;;;;7.53;2.75;;;;;;;24.86;42.89;99717.52;1780611;79;20940;-64
2022/06/27 19:20:30;;;;;;;7.40;2.80;;;;;;;24.77;43.06;99717.51;1768904;79;21842;-64
2022/06/27 19:23:01;;;;;;;4.85;3.05;;;;;;;24.71;43.18;99723.52;1759702;79;21119;-64
2022/06/27 19:25:27;;;;;;;8.58;3.20;;;;;;;24.61;43.32;99721.98;1770694;79;20994;-64
2022/06/27 19:27:54;;;;;;;12.58;3.25;;;;;;;24.50;43.50;99725.78;1772332;79;21119;-64
2022/06/27 19:30:21;;;;;;;10.98;3.58;;;;;;;24.40;43.66;99730.41;1768176;79;20988;-63
2022/06/27 19:32:47;;;;;;;8.08;3.45;;;;;;;24.32;43.84;99725.36;1767589;79;25079;-65
2022/06/27 19:35:14;;;;;;;11.20;3.15;;;;;;;24.27;44.07;99723.66;1775458;79;21080;-63
2022/06/27 19:37:45;;;;;;;7.12;3.12;;;;;;;24.20;44.25;99727.13;1767236;79;21074;-64
2022/06/27 19:40:12;;;;;;;4.25;3.12;;;;;;;24.10;44.36;99727.27;1771376;79;20959;-62
2022/06/27 19:42:40;;;;;;;9.10;3.80;;;;;;;24.01;44.57;99730.39;1769268;79;21546;-64
2022/06/27 19:45:09;;;;;;;5.65;3.72;;;;;;;23.93;44.70;99730.34;1772504;79;21025;-63
2022/06/27 19:47:37;;;;;;;11.08;4.40;;;;;;;23.89;44.87;99736.50;1771879;79;21055;-64
2022/06/27 19:50:07;;;;;;;10.98;4.15;;;;;;;23.84;45.06;99729.97;1756837;79;21788;-61
2022/06/27 19:52:34;;;;;;;8.03;4.70;;;;;;;23.72;45.29;99734.70;1712466;82;21793;-61
2022/06/27 19:55:02;;;;;;;11.65;4.55;;;;;;;23.57;45.61;99729.59;1743436;80;21072;-61
2022/06/27 19:57:30;;;;;;;16.00;5.95;;;;;;;23.40;45.86;99737.45;1688329;82;21349;-63
2022/06/27 19:59:57;;;;;;;15.95;6.42;;;;;;;23.26;46.04;99734.02;1743122;80;22418;-62
2022/06/27 20:02:26;;;;;;;13.88;6.62;;;;;;;23.10;46.32;99728.04;1749042;80;20929;-63
2022/06/27 20:05:14;;;;;;;16.27;7.28;;;;;;;23.05;46.59;99723.69;1755709;80;21096;-64
2022/06/27 20:07:41;;;;;;;9.63;6.33;;;;;;;23.01;46.84;99719.14;1797646;78;21091;-63
2022/06/27 20:10:18;;;;;;;11.08;5.05;;;;;;;22.93;47.09;99715.03;1806624;78;21799;-63
2022/06/27 20:12:41;;;;;;;8.38;5.20;;;;;;;22.90;47.28;99713.19;1805847;78;21023;-63
2022/06/27 20:15:09;;;;;;;9.43;5.58;;;;;;;22.87;47.55;99713.48;1775175;80;20973;-63
2022/06/27 20:17:37;;;;;;;10.63;6.20;;;;;;;22.83;47.77;99716.95;1775295;80;21557;-63
2022/06/27 20:20:07;;;;;;;12.25;5.97;;;;;;;22.74;47.95;99717.84;1769922;79;21063;-62
2022/06/27 20:22:36;;;;;;;12.07;5.85;;;;;;;22.62;48.22;99716.39;1770492;79;21920;-62
2022/06/27 20:25:06;;;;;;;9.03;5.45;;;;;;;22.49;48.42;99719.40;1775166;79;21035;-62
2022/06/27 20:27:34;;;;;;;16.32;5.85;;;;;;;22.40;48.77;99715.81;1765125;79;21000;-62
2022/06/27 20:30:02;;;;;;;15.75;5.58;;;;;;;22.35;49.03;99716.77;1765825;79;21060;-62
2022/06/27 20:32:29;;;;;;;11.53;5.65;;;;;;;22.28;49.29;99724.98;1767820;79;21128;-63
2022/06/27 20:34:57;;;;;;;12.80;6.12;;;;;;;22.19;49.49;99715.24;1770472;79;21754;-63
2022/06/27 20:37:25;;;;;;;9.75;5.70;;;;;;;22.08;49.76;99714.41;1766985;79;21049;-62
2022/06/27 20:39:52;;;;;;;13.72;5.95;;;;;;;22.02;49.96;99712.34;1781767;79;20975;-63
2022/06/27 20:42:18;;;;;;;9.75;5.15;;;;;;;21.99;50.29;99708.64;1762996;79;21056;-63
2022/06/27 20:44:46;;;;;;;11.18;5.50;;;;;;;22.02;50.49;99703.03;1744957;80;21635;-63
2022/06/27 20:47:12;;;;;;;9.48;4.55;;;;;;;22.07;50.87;99700.78;1802095;78;20995;-63
2022/06/27 20:49:40;;;;;;;18.77;6.40;;;;;;;22.05;51.00;99701.41;1806435;78;20939;-63
2022/06/27 20:52:09;;;;;;;17.45;6.03;;;;;;;22.03;51.27;99705.20;1803065;78;20992;-63
2022/06/27 20:54:37;;;;;;;12.37;6.12;;;;;;;21.96;51.42;99702.30;1803696;78;21048;-64
2022/06/27 20:57:05;;;;;;;47.30;7.22;;;;;;;21.90;51.83;99702.85;1806512;78;21009;-63
2022/06/27 20:59:38;;;;;;;10.18;5.95;;;;;;;21.86;51.98;99696.17;1802409;78;21942;-63
2022/06/27 21:02:01;;;;;;;11.75;5.15;;;;;;;21.82;52.23;99694.80;1807474;78;20958;-63
2022/06/27 21:04:28;;;;;;;12.70;5.30;;;;;;;21.79;52.45;99692.40;1799292;78;21527;-64
2022/06/27 21:06:55;;;;;;;10.00;5.05;;;;;;;21.75;52.86;99691.86;1791733;78;21084;-63
2022/06/27 21:12:09;;;;;;;7.25;4.60;;;;;;;21.66;53.17;99690.91;1798954;78;21115;-63
2022/06/27 21:14:37;;;;;;;10.98;4.62;;;;;;;21.66;53.31;99682.11;1793961;78;20961;-63
2022/06/27 21:17:06;;;;;;;7.55;4.53;;;;;;;21.65;53.38;99691.91;1806574;78;21133;-63
2022/06/27 21:19:35;;;;;;;9.75;4.70;;;;;;;21.66;53.49;99692.73;1794448;78;21119;-63
2022/06/27 21:22:04;;;;;;;8.90;4.20;;;;;;;21.67;53.84;99687.27;1804952;78;21116;-62
2022/06/27 21:24:31;;;;;;;7.62;4.40;;;;;;;21.70;53.81;99682.66;1794112;78;21140;-63
2022/06/27 21:27:04;;;;;;;9.53;4.75;;;;;;;21.74;53.99;99684.05;1808239;78;20965;-63
2022/06/27 21:29:31;;;;;;;8.23;4.08;;;;;;;21.76;54.05;99684.72;1817018;78;21542;-63
2022/06/27 21:32:01;;;;;;;9.48;3.72;;;;;;;21.74;54.07;99686.71;1805276;78;21487;-63
2022/06/27 21:34:28;;;;;;;12.68;4.20;;;;;;;21.74;54.21;99686.71;1799130;78;21668;-63
2022/06/27 21:36:54;;;;;;;10.55;4.25;;;;;;;21.73;54.28;99688.50;1806264;78;21097;-63
2022/06/27 21:39:21;;;;;;;9.33;3.75;;;;;;;21.71;54.39;99685.67;1798864;78;20957;-63
2022/06/27 21:41:48;;;;;;;7.03;4.17;;;;;;;21.65;54.37;99691.91;1807677;78;21518;-63
2022/06/27 21:44:14;;;;;;;10.70;3.80;;;;;;;21.61;54.52;99698.47;1803284;78;21245;-63
2022/06/27 21:46:41;;;;;;;6.60;3.90;;;;;;;21.57;54.64;99697.59;1811216;78;21545;-63
2022/06/27 21:49:08;;;;;;;7.70;3.92;;;;;;;21.56;54.75;99702.05;1789820;78;21418;-63
2022/06/27 21:51:35;;;;;;;9.75;4.50;;;;;;;21.57;54.96;99705.07;1799971;78;21118;-63
2022/06/27 21:54:17;;;;;;;9.13;4.58;;;;;;;21.58;55.02;99696.11;1805420;78;21012;-63
2022/06/27 21:56:47;;;;;;;9.03;4.78;;;;;;;21.60;55.25;99695.48;1803977;78;21537;-63
2022/06/27 21:59:14;;;;;;;9.13;4.45;;;;;;;21.61;55.36;99690.50;1802312;78;21573;-63
2022/06/27 22:01:41;;;;;;;7.53;4.50;;;;;;;21.61;55.49;99692.33;1802172;78;21062;-63
2022/06/27 22:04:08;;;;;;;13.95;5.00;;;;;;;21.56;55.67;99689.26;1802447;78;21060;-63
2022/06/27 22:06:35;;;;;;;7.72;4.60;;;;;;;21.52;55.78;99691.38;1807146;78;20984;-63
2022/06/27 22:09:02;;;;;;;9.30;4.97;;;;;;;21.44;55.82;99688.59;1796915;78;21016;-63
2022/06/27 22:11:29;;;;;;;7.45;4.55;;;;;;;21.37;55.96;99690.13;1804945;78;20929;-63
2022/06/27 22:13:56;;;;;;;6.95;4.25;;;;;;;21.33;56.03;99682.08;1802680;78;20972;-63
2022/06/27 22:16:22;;;;;;;6.17;4.70;;;;;;;21.30;56.17;99675.73;1801587;78;20976;-63
2022/06/27 22:18:50;;;;;;;7.65;3.77;;;;;;;21.32;56.30;99677.77;1768972;79;21079;-63
2022/06/27 22:21:16;;;;;;;6.17;3.95;;;;;;;21.34;56.35;99679.30;1762466;80;21727;-63
2022/06/27 22:23:43;;;;;;;7.15;4.35;;;;;;;21.31;56.43;99677.39;1748014;80;21038;-63
2022/06/27 22:26:10;;;;;;;4.70;3.47;;;;;;;21.25;56.40;99676.14;1735720;81;21465;-63
2022/06/27 22:28:39;;;;;;;9.23;4.15;;;;;;;21.21;56.50;99674.77;1740878;79;21097;-63
2022/06/27 22:31:06;;;;;;;6.37;3.35;;;;;;;21.20;56.53;99673.94;1775150;79;20993;-63
2022/06/27 22:33:33;;;;;;;6.00;3.50;;;;;;;21.18;56.61;99670.58;1732307;81;21036;-64
2022/06/27 22:36:00;;;;;;;10.45;4.12;;;;;;;21.20;56.66;99669.95;1738178;81;20980;-63
2022/06/27 22:38:27;;;;;;;6.10;3.72;;;;;;;21.21;56.72;99670.29;1739756;81;21840;-63
2022/06/27 22:40:54;;;;;;;10.23;3.70;;;;;;;21.18;56.75;99670.58;1723955;80;20992;-63
2022/06/27 22:43:20;;;;;;;4.83;3.08;;;;;;;21.18;56.75;99673.23;1775364;79;21104;-63
2022/06/27 22:45:47;;;;;;;8.25;3.35;;;;;;;21.16;56.84;99667.71;1760287;80;21505;-63
2022/06/27 22:48:14;;;;;;;10.18;3.27;;;;;;;21.11;56.83;99668.63;1747715;81;21034;-63
2022/06/27 22:50:42;;;;;;;3.50;3.08;;;;;;;21.04;56.85;99664.38;1756578;80;22673;-66
2022/06/27 22:53:08;;;;;;;5.78;3.42;;;;;;;20.96;56.94;99665.56;1764847;80;20986;-63
2022/06/27 22:55:35;;;;;;;5.65;3.50;;;;;;;20.92;57.10;99658.84;1764962;80;21027;-63
2022/06/27 22:58:02;;;;;;;8.48;3.42;;;;;;;20.90;57.19;99659.00;1762345;80;21588;-63
2022/06/27 23:00:29;;;;;;;11.25;3.17;;;;;;;20.92;57.17;99657.52;1765936;79;21001;-62
2022/06/27 23:02:55;;;;;;;5.97;3.60;;;;;;;20.94;57.27;99651.09;1763347;80;22281;-62
2022/06/27 23:05:22;;;;;;;5.22;3.35;;;;;;;20.96;57.39;99641.68;1766198;80;21601;-62
2022/06/27 23:07:49;;;;;;;11.18;3.30;;;;;;;20.98;57.29;99635.25;1765517;80;20965;-63
2022/06/27 23:10:16;;;;;;;6.00;3.25;;;;;;;20.98;57.38;99635.75;1735636;81;21206;-63
2022/06/27 23:12:43;;;;;;;7.40;2.92;;;;;;;20.99;57.41;99640.06;1778567;79;26624;-63
2022/06/27 23:15:12;;;;;;;3.98;3.17;;;;;;;20.97;57.51;99636.70;1808580;78;21575;-63
2022/06/27 23:17:39;;;;;;;3.15;2.83;;;;;;;20.97;57.50;99635.38;1803764;78;20996;-63
2022/06/27 23:20:11;;;;;;;6.90;3.17;;;;;;;20.94;57.56;99635.67;1802033;78;21072;-63
2022/06/27 23:22:38;;;;;;;3.47;3.02;;;;;;;20.87;57.63;99626.61;1793729;78;21010;-63
2022/06/27 23:25:07;;;;;;;8.68;3.30;;;;;;;20.83;57.67;99617.23;1804485;78;21673;-64
2022/06/27 23:27:33;;;;;;;8.20;3.10;;;;;;;20.77;57.82;99622.13;1812252;78;21098;-63
2022/06/27 23:30:01;;;;;;;7.95;3.42;;;;;;;20.75;57.89;99610.84;1796719;78;21063;-63
2022/06/27 23:32:28;;;;;;;6.17;3.58;;;;;;;20.72;57.93;99616.39;1803503;78;21694;-63
2022/06/27 23:34:54;;;;;;;5.25;3.65;;;;;;;20.66;57.98;99614.30;1798206;78;21511;-63
2022/06/27 23:37:21;;;;;;;5.22;3.50;;;;;;;20.61;58.08;99613.05;1799870;78;21169;-63
2022/06/27 23:39:48;;;;;;;6.25;3.27;;;;;;;20.59;58.14;99611.87;1796388;78;21087;-63
2022/06/27 23:42:16;;;;;;;6.55;3.67;;;;;;;20.59;58.27;99613.20;1791795;78;21096;-63
2022/06/27 23:44:43;;;;;;;5.08;3.50;;;;;;;20.60;58.40;99616.20;1808547;78;20984;-63
2022/06/27 23:47:10;;;;;;;6.20;3.50;;;;;;;20.61;58.54;99609.91;1791394;78;20988;-63
2022/06/27 23:49:37;;;;;;;;;;;;;;;20.63;58.63;99614.59;1808208;78;22221;-63
2022/06/27 23:52:05;;;;;;;3.70;3.20;;;;;;;20.66;58.89;99609.00;1811574;78;21513;-63
2022/06/27 23:54:34;;;;;;;5.20;3.30;;;;;;;20.66;58.80;99611.66;1800021;78;21615;-63
2022/06/27 23:57:01;;;;;;;10.88;3.90;;;;;;;20.63;58.83;99609.28;1803955;78;21069;-64
2022/06/27 23:59:32;;;;;;;5.47;3.50;;;;;;;20.59;58.92;99611.87;1799950;78;21487;-63
